createdAt,value
2019-03-16T00:02:13.139Z,6.17
2019-03-16T00:04:43.927Z,5.93
2019-03-16T00:07:14.950Z,6.67
2019-03-16T00:09:45.957Z,5.93
2019-03-16T00:12:16.628Z,6.33
2019-03-16T00:14:47.374Z,6.73
2019-03-16T00:17:23.248Z,6.37
2019-03-16T00:19:50.806Z,6.73
2019-03-16T00:22:21.826Z,5.97
2019-03-16T00:24:53.074Z,6.97
2019-03-16T00:27:25.046Z,7.13
2019-03-16T00:29:55.883Z,7.10
2019-03-16T00:32:26.450Z,7.90
2019-03-16T00:34:57.571Z,7.43
2019-03-16T00:37:28.277Z,7.73
2019-03-16T00:39:58.714Z,7.23
2019-03-16T00:42:29.675Z,7.57
2019-03-16T00:45:00.537Z,7.90
2019-03-16T00:47:31.250Z,7.03
2019-03-16T00:50:01.974Z,6.60
2019-03-16T00:52:32.650Z,6.07
2019-03-16T00:55:03.338Z,6.87
2019-03-16T00:57:34.295Z,5.77
2019-03-16T01:00:05.419Z,5.80
2019-03-16T01:02:36.140Z,5.30
2019-03-16T01:05:07.601Z,5.13
2019-03-16T01:07:38.230Z,4.73
2019-03-16T01:10:10.696Z,4.50
2019-03-16T01:12:43.178Z,4.40
2019-03-16T01:15:14.386Z,3.77
2019-03-16T01:17:45.217Z,3.73
2019-03-16T01:20:15.843Z,3.70
2019-03-16T01:22:46.450Z,3.20
2019-03-16T01:25:18.206Z,3.23
2019-03-16T01:27:48.905Z,3.43
2019-03-16T01:30:19.694Z,3.00
2019-03-16T01:32:52.049Z,3.10
2019-03-16T01:35:22.646Z,3.10
2019-03-16T01:37:53.516Z,3.13
2019-03-16T01:40:25.475Z,2.70
2019-03-16T01:42:56.150Z,2.60
2019-03-16T01:45:27.859Z,2.40
2019-03-16T01:48:00.441Z,2.10
2019-03-16T01:50:31.384Z,2.30
2019-03-16T01:53:02.508Z,2.13
2019-03-16T01:55:33.257Z,2.37
2019-03-16T01:58:03.786Z,2.53
2019-03-16T02:00:34.851Z,2.53
2019-03-16T02:03:05.554Z,2.00
2019-03-16T02:05:36.741Z,2.40
2019-03-16T02:08:07.746Z,2.47
2019-03-16T02:10:38.603Z,2.07
2019-03-16T02:13:09.286Z,2.57
2019-03-16T02:15:40.070Z,2.60
2019-03-16T02:18:10.863Z,2.47
2019-03-16T02:20:41.440Z,2.77
2019-03-16T02:23:11.939Z,2.63
2019-03-16T02:25:43.615Z,2.60
2019-03-16T02:28:14.470Z,2.60
2019-03-16T02:30:45.739Z,2.80
2019-03-16T02:33:16.230Z,3.17
2019-03-16T02:35:46.964Z,2.90
2019-03-16T02:38:17.591Z,3.00
2019-03-16T02:40:48.265Z,2.97
2019-03-16T02:43:18.692Z,2.83
2019-03-16T02:45:49.728Z,2.73
2019-03-16T02:48:20.223Z,2.97
2019-03-16T02:50:51.160Z,2.87
2019-03-16T02:53:21.910Z,2.90
2019-03-16T02:55:52.586Z,2.90
2019-03-16T02:58:23.660Z,2.87
2019-03-16T03:00:54.297Z,2.73
2019-03-16T03:03:29.785Z,2.93
2019-03-16T03:05:57.217Z,2.77
2019-03-16T03:08:27.790Z,2.33
2019-03-16T03:10:58.275Z,2.53
2019-03-16T03:13:28.936Z,2.30
2019-03-16T03:15:59.470Z,2.40
2019-03-16T03:18:31.183Z,2.30
2019-03-16T03:21:02.037Z,2.17
2019-03-16T03:23:32.607Z,2.10
2019-03-16T03:26:03.190Z,2.10
2019-03-16T03:28:33.969Z,2.03
2019-03-16T03:31:05.086Z,1.70
2019-03-16T03:33:57.634Z,1.67
2019-03-16T03:36:07.848Z,1.80
2019-03-16T03:38:38.654Z,1.87
2019-03-16T03:41:09.176Z,1.90
2019-03-16T03:43:40.168Z,1.70
2019-03-16T03:46:11.012Z,1.60
2019-03-16T03:48:41.834Z,1.60
2019-03-16T03:51:12.809Z,1.40
2019-03-16T03:53:43.512Z,1.50
2019-03-16T03:56:14.363Z,1.20
2019-03-16T03:58:44.986Z,1.30
2019-03-16T04:01:15.809Z,1.20
2019-03-16T04:03:46.693Z,1.30
2019-03-16T04:06:17.525Z,1.30
2019-03-16T04:08:48.416Z,1.20
2019-03-16T04:11:18.889Z,1.50
2019-03-16T04:13:49.331Z,1.30
2019-03-16T04:16:20.788Z,1.40
2019-03-16T04:18:52.171Z,1.30
2019-03-16T04:21:22.928Z,1.37
2019-03-16T04:23:53.558Z,1.30
2019-03-16T04:26:24.308Z,1.50
2019-03-16T04:28:55.290Z,1.37
2019-03-16T04:31:26.176Z,1.40
2019-03-16T04:33:56.986Z,1.30
2019-03-16T04:36:28.094Z,1.40
2019-03-16T04:39:00.125Z,1.40
2019-03-16T04:41:30.712Z,1.20
2019-03-16T04:44:03.038Z,1.40
2019-03-16T04:46:34.291Z,1.37
2019-03-16T04:49:05.110Z,1.40
2019-03-16T04:51:35.863Z,1.27
2019-03-16T04:54:06.382Z,1.50
2019-03-16T04:56:37.046Z,1.50
2019-03-16T04:59:07.814Z,1.30
2019-03-16T05:01:38.675Z,1.37
2019-03-16T05:04:09.514Z,1.30
2019-03-16T05:06:40.272Z,1.30
2019-03-16T05:09:11.055Z,1.30
2019-03-16T05:11:42.254Z,1.20
2019-03-16T05:14:12.846Z,1.10
2019-03-16T05:16:43.950Z,1.43
2019-03-16T05:19:14.836Z,1.10
2019-03-16T05:21:45.594Z,1.40
2019-03-16T05:24:16.202Z,1.40
2019-03-16T05:26:47.683Z,1.10
2019-03-16T05:29:19.010Z,1.10
2019-03-16T05:31:50.828Z,1.20
2019-03-16T05:34:21.612Z,1.03
2019-03-16T05:36:55.843Z,1.10
2019-03-16T05:39:24.674Z,1.10
2019-03-16T05:41:55.661Z,1.00
2019-03-16T05:44:26.299Z,1.17
2019-03-16T05:46:56.958Z,1.10
2019-03-16T05:52:10.127Z,1.10
2019-03-16T05:54:40.690Z,0.93
2019-03-16T05:57:11.395Z,1.00
2019-03-16T05:59:41.979Z,1.20
2019-03-16T06:02:12.551Z,1.10
2019-03-16T06:04:43.554Z,1.00
2019-03-16T06:07:14.391Z,0.90
2019-03-16T06:09:45.655Z,1.10
2019-03-16T06:12:16.258Z,0.97
2019-03-16T06:14:47.092Z,0.90
2019-03-16T06:17:17.806Z,0.93
2019-03-16T06:19:48.677Z,0.93
2019-03-16T06:22:19.842Z,1.00
2019-03-16T06:24:51.558Z,1.10
2019-03-16T06:27:22.562Z,1.10
2019-03-16T06:29:53.247Z,1.20
2019-03-16T06:32:24.398Z,1.00
2019-03-16T06:34:55.117Z,1.00
2019-03-16T06:37:25.795Z,1.00
2019-03-16T06:39:58.522Z,1.07
2019-03-16T06:42:29.282Z,0.80
2019-03-16T06:44:59.923Z,0.90
2019-03-16T06:47:30.690Z,0.73
2019-03-16T06:50:01.470Z,0.80
2019-03-16T06:52:32.755Z,0.80
2019-03-16T06:55:03.533Z,0.70
2019-03-16T06:57:34.207Z,0.83
2019-03-16T07:00:05.306Z,1.00
2019-03-16T07:02:36.083Z,0.90
2019-03-16T07:05:07.846Z,0.70
2019-03-16T07:07:38.583Z,0.83
2019-03-16T07:10:09.658Z,0.80
2019-03-16T07:12:41.514Z,1.00
2019-03-16T07:15:12.337Z,0.80
2019-03-16T07:17:43.152Z,0.97
2019-03-16T07:20:13.800Z,0.90
2019-03-16T07:22:44.603Z,0.83
2019-03-16T07:25:15.648Z,1.00
2019-03-16T07:27:48.119Z,0.80
2019-03-16T07:30:18.903Z,0.90
2019-03-16T07:32:49.751Z,0.90
2019-03-16T07:35:20.636Z,0.83
2019-03-16T07:37:53.252Z,1.00
2019-03-16T07:40:24.032Z,0.87
2019-03-16T07:42:54.913Z,0.90
2019-03-16T07:45:25.522Z,1.00
2019-03-16T07:47:56.066Z,0.80
2019-03-16T07:50:27.095Z,0.90
2019-03-16T07:52:57.851Z,1.00
2019-03-16T07:55:28.595Z,0.93
2019-03-16T07:57:59.612Z,0.80
2019-03-16T08:00:30.554Z,0.90
2019-03-16T08:03:01.629Z,0.87
2019-03-16T08:05:32.441Z,0.73
2019-03-16T08:08:03.160Z,0.80
2019-03-16T08:10:34.312Z,0.90
2019-03-16T08:13:05.675Z,0.73
2019-03-16T08:15:37.575Z,0.80
2019-03-16T08:18:08.294Z,0.70
2019-03-16T08:20:39.597Z,0.90
2019-03-16T08:23:10.394Z,0.70
2019-03-16T08:25:41.315Z,0.60
2019-03-16T08:28:12.145Z,0.80
2019-03-16T08:30:42.963Z,0.80
2019-03-16T08:33:13.530Z,0.77
2019-03-16T08:35:44.196Z,0.67
2019-03-16T08:38:15.147Z,0.70
2019-03-16T08:40:46.146Z,0.80
2019-03-16T08:43:17.139Z,0.80
2019-03-16T08:45:47.993Z,0.70
2019-03-16T08:48:23.216Z,0.57
2019-03-16T08:50:51.580Z,0.60
2019-03-16T08:53:23.012Z,0.80
2019-03-16T08:55:53.821Z,0.80
2019-03-16T08:58:24.426Z,0.80
2019-03-16T09:00:55.190Z,0.80
2019-03-16T09:03:25.980Z,0.90
2019-03-16T09:05:57.073Z,0.57
2019-03-16T09:08:28.294Z,0.70
2019-03-16T09:10:59.018Z,0.70
2019-03-16T09:13:29.759Z,0.70
2019-03-16T09:16:00.496Z,0.80
2019-03-16T09:18:32.236Z,0.70
2019-03-16T09:21:02.860Z,0.60
2019-03-16T09:23:33.591Z,0.70
2019-03-16T09:26:04.183Z,0.70
2019-03-16T09:28:35.272Z,0.80
2019-03-16T09:31:05.946Z,0.70
2019-03-16T09:33:36.743Z,0.87
2019-03-16T09:36:07.613Z,0.80
2019-03-16T09:38:38.724Z,0.60
2019-03-16T09:41:09.807Z,0.70
2019-03-16T09:43:40.523Z,0.73
2019-03-16T09:46:11.285Z,0.60
2019-03-16T09:48:41.736Z,0.80
2019-03-16T09:51:12.317Z,0.70
2019-03-16T09:53:42.775Z,0.50
2019-03-16T09:56:13.365Z,0.93
2019-03-16T09:58:43.924Z,0.63
2019-03-16T10:01:15.519Z,0.57
2019-03-16T10:03:46.397Z,0.90
2019-03-16T10:06:17.031Z,0.80
2019-03-16T10:08:48.058Z,0.57
2019-03-16T10:11:18.954Z,0.80
2019-03-16T10:13:49.849Z,0.70
2019-03-16T10:16:20.934Z,0.70
2019-03-16T10:18:51.602Z,0.87
2019-03-16T10:21:22.667Z,0.60
2019-03-16T10:23:53.227Z,0.70
2019-03-16T10:26:23.959Z,0.67
2019-03-16T10:28:55.983Z,0.80
2019-03-16T10:31:26.917Z,0.73
2019-03-16T10:33:57.975Z,0.70
2019-03-16T10:36:28.690Z,0.90
2019-03-16T10:38:59.441Z,0.60
2019-03-16T10:41:30.242Z,0.70
2019-03-16T10:44:01.013Z,0.67
2019-03-16T10:46:31.555Z,0.57
2019-03-16T10:49:02.699Z,0.60
2019-03-16T10:51:33.534Z,0.67
2019-03-16T10:54:04.445Z,0.53
2019-03-16T10:56:35.337Z,0.50
2019-03-16T10:59:06.037Z,0.77
2019-03-16T11:01:37.921Z,0.57
2019-03-16T11:04:08.535Z,0.50
2019-03-16T11:06:39.193Z,0.33
2019-03-16T11:09:10.090Z,0.50
2019-03-16T11:11:40.848Z,0.50
2019-03-16T11:14:11.362Z,0.50
2019-03-16T11:16:42.127Z,0.40
2019-03-16T11:19:12.626Z,0.60
2019-03-16T11:21:43.270Z,0.40
2019-03-16T11:24:13.790Z,0.50
2019-03-16T11:26:44.372Z,0.40
2019-03-16T11:29:15.454Z,0.40
2019-03-16T11:31:46.415Z,0.50
2019-03-16T11:34:17.330Z,0.50
2019-03-16T11:36:48.256Z,0.53
2019-03-16T11:39:18.881Z,0.50
2019-03-16T11:41:49.679Z,0.60
2019-03-16T11:44:20.474Z,0.43
2019-03-16T11:46:51.029Z,0.40
2019-03-16T11:49:21.766Z,0.40
2019-03-16T11:51:52.400Z,0.50
2019-03-16T11:54:23.365Z,0.70
2019-03-16T11:56:54.400Z,0.50
2019-03-16T11:59:25.966Z,0.43
2019-03-16T12:02:05.088Z,0.50
2019-03-16T12:04:28.867Z,0.50
2019-03-16T12:06:59.570Z,0.40
2019-03-16T12:09:33.645Z,0.50
2019-03-16T12:12:04.351Z,0.77
2019-03-16T12:14:35.175Z,0.40
2019-03-16T12:17:06.146Z,0.60
2019-03-16T12:19:37.531Z,0.40
2019-03-16T12:22:07.974Z,0.60
2019-03-16T12:24:38.691Z,0.57
2019-03-16T12:27:09.791Z,0.60
2019-03-16T12:29:40.787Z,0.60
2019-03-16T12:32:11.430Z,0.50
2019-03-16T12:34:42.262Z,0.60
2019-03-16T12:37:13.088Z,0.60
2019-03-16T12:39:43.887Z,0.40
2019-03-16T12:42:15.923Z,0.40
2019-03-16T12:44:46.742Z,0.50
2019-03-16T12:47:17.347Z,0.57
2019-03-16T12:49:48.002Z,0.40
2019-03-16T12:52:18.724Z,0.60
2019-03-16T12:54:49.810Z,0.70
2019-03-16T12:57:20.831Z,0.60
2019-03-16T12:59:52.033Z,0.50
2019-03-16T13:02:26.394Z,0.53
2019-03-16T13:04:59.939Z,0.70
2019-03-16T13:07:31.158Z,0.60
2019-03-16T13:10:03.272Z,0.50
2019-03-16T13:12:34.242Z,0.70
2019-03-16T13:15:05.301Z,0.80
2019-03-16T13:17:36.220Z,0.70
2019-03-16T13:20:07.247Z,0.70
2019-03-16T13:22:39.738Z,1.10
2019-03-16T13:25:10.562Z,1.00
2019-03-16T13:27:41.212Z,1.07
2019-03-16T13:30:13.066Z,1.00
2019-03-16T13:32:43.800Z,1.00
2019-03-16T13:35:16.761Z,1.20
2019-03-16T13:37:47.835Z,1.10
2019-03-16T13:40:19.922Z,1.30
2019-03-16T13:42:50.633Z,1.10
2019-03-16T13:45:21.343Z,1.20
2019-03-16T13:47:52.174Z,1.20
2019-03-16T13:50:23.367Z,1.10
2019-03-16T13:52:54.297Z,1.20
2019-03-16T13:55:25.403Z,1.00
2019-03-16T13:57:56.375Z,0.87
2019-03-16T14:00:27.023Z,1.00
2019-03-16T14:02:58.200Z,0.97
2019-03-16T14:05:28.883Z,0.80
2019-03-16T14:07:59.533Z,0.73
2019-03-16T14:10:31.884Z,0.93
2019-03-16T14:13:02.747Z,0.80
2019-03-16T14:15:33.458Z,0.90
2019-03-16T14:18:04.735Z,0.70
2019-03-16T14:20:35.504Z,0.70
2019-03-16T14:23:06.725Z,0.80
2019-03-16T14:25:37.831Z,1.00
2019-03-16T14:28:08.577Z,0.70
2019-03-16T14:30:41.299Z,0.80
2019-03-16T14:33:11.912Z,0.90
2019-03-16T14:35:42.440Z,0.93
2019-03-16T14:38:13.315Z,0.70
2019-03-16T14:40:44.063Z,0.80
2019-03-16T14:43:15.223Z,0.90
2019-03-16T14:45:48.853Z,0.77
2019-03-16T14:48:18.809Z,0.70
2019-03-16T14:50:49.307Z,0.77
2019-03-16T14:53:19.935Z,1.10
2019-03-16T14:55:50.851Z,0.90
2019-03-16T14:58:21.560Z,0.87
2019-03-16T15:00:52.207Z,0.87
2019-03-16T15:03:23.547Z,0.80
2019-03-16T15:05:54.281Z,1.10
2019-03-16T15:08:25.042Z,0.90
2019-03-16T15:10:55.707Z,1.00
2019-03-16T15:13:27.120Z,0.80
2019-03-16T15:15:57.675Z,0.77
2019-03-16T15:18:28.246Z,1.10
2019-03-16T15:20:59.300Z,0.87
2019-03-16T15:23:30.364Z,0.80
2019-03-16T15:26:02.735Z,1.00
2019-03-16T15:28:33.328Z,0.90
2019-03-16T15:31:04.287Z,1.27
2019-03-16T15:33:35.331Z,1.00
2019-03-16T15:36:06.074Z,1.07
2019-03-16T15:38:37.911Z,0.70
2019-03-16T15:41:08.669Z,0.80
2019-03-16T15:43:39.602Z,0.90
2019-03-16T15:46:10.752Z,0.70
2019-03-16T15:48:41.346Z,0.87
2019-03-16T15:51:12.049Z,0.90
2019-03-16T15:53:42.630Z,0.70
2019-03-16T15:56:13.181Z,0.80
2019-03-16T15:58:43.952Z,0.93
2019-03-16T16:01:14.678Z,0.87
2019-03-16T16:03:45.318Z,1.07
2019-03-16T16:06:15.899Z,0.87
2019-03-16T16:08:47.591Z,0.80
2019-03-16T16:11:18.513Z,0.80
2019-03-16T16:13:49.339Z,0.90
2019-03-16T16:16:21.546Z,0.73
2019-03-16T16:18:52.642Z,0.77
2019-03-16T16:21:23.319Z,1.17
2019-03-16T16:23:54.827Z,1.70
2019-03-16T16:26:25.474Z,2.17
2019-03-16T16:28:56.027Z,1.50
2019-03-16T16:31:27.022Z,1.73
2019-03-16T16:33:58.174Z,1.97
2019-03-16T16:36:28.934Z,1.60
2019-03-16T16:39:00.702Z,1.63
2019-03-16T16:41:31.510Z,1.43
2019-03-16T16:44:02.842Z,1.30
2019-03-16T16:46:33.630Z,1.20
2019-03-16T16:49:05.334Z,1.00
2019-03-16T16:51:36.222Z,1.10
2019-03-16T16:54:06.794Z,1.17
2019-03-16T16:56:37.778Z,1.13
2019-03-16T16:59:08.503Z,1.10
2019-03-16T17:01:39.061Z,1.07
2019-03-16T17:04:09.798Z,1.10
2019-03-16T17:06:40.599Z,1.20
2019-03-16T17:09:12.908Z,1.10
2019-03-16T17:11:45.065Z,1.13
2019-03-16T17:14:17.038Z,1.50
2019-03-16T17:16:48.184Z,1.10
2019-03-16T17:19:19.455Z,1.30
2019-03-16T17:21:50.092Z,1.37
2019-03-16T17:24:20.832Z,1.40
2019-03-16T17:26:51.522Z,1.30
2019-03-16T17:29:22.782Z,1.17
2019-03-16T17:31:54.717Z,1.40
2019-03-16T17:34:25.460Z,1.30
2019-03-16T17:36:56.283Z,1.30
2019-03-16T17:39:28.171Z,1.40
2019-03-16T17:41:58.866Z,1.50
2019-03-16T17:44:29.521Z,1.50
2019-03-16T17:47:00.378Z,1.50
2019-03-16T17:49:31.264Z,1.23
2019-03-16T17:52:01.983Z,1.23
2019-03-16T17:54:33.810Z,1.50
2019-03-16T17:57:04.596Z,1.40
2019-03-16T17:59:35.844Z,1.40
2019-03-16T18:02:06.618Z,1.30
2019-03-16T18:04:37.342Z,0.93
2019-03-16T18:07:07.985Z,1.30
2019-03-16T18:09:42.648Z,1.23
2019-03-16T18:12:14.783Z,1.20
2019-03-16T18:14:45.830Z,1.10
2019-03-16T18:17:16.403Z,1.10
2019-03-16T18:19:49.043Z,1.20
2019-03-16T18:22:20.682Z,1.00
2019-03-16T18:24:51.648Z,1.27
2019-03-16T18:27:24.136Z,1.10
2019-03-16T18:29:54.906Z,1.20
2019-03-16T18:32:25.867Z,1.00
2019-03-16T18:34:56.455Z,1.30
2019-03-16T18:37:27.446Z,1.00
2019-03-16T18:39:58.535Z,0.90
2019-03-16T18:42:29.226Z,1.17
2019-03-16T18:45:00.474Z,1.10
2019-03-16T18:47:31.216Z,1.10
2019-03-16T18:50:01.897Z,0.90
2019-03-16T18:52:32.878Z,1.10
2019-03-16T18:55:03.709Z,1.10
2019-03-16T18:57:34.353Z,0.97
2019-03-16T19:00:05.458Z,1.17
2019-03-16T19:02:36.156Z,1.10
2019-03-16T19:05:07.658Z,1.00
2019-03-16T19:07:38.234Z,1.40
2019-03-16T19:10:10.712Z,1.20
2019-03-16T19:12:42.622Z,1.10
2019-03-16T19:15:14.146Z,1.20
2019-03-16T19:17:57.537Z,1.10
2019-03-16T19:20:17.677Z,1.10
2019-03-16T19:22:49.476Z,1.13
2019-03-16T19:25:20.267Z,1.20
2019-03-16T19:27:51.149Z,1.10
2019-03-16T19:30:22.212Z,1.10
2019-03-16T19:32:52.844Z,1.00
2019-03-16T19:35:23.700Z,1.07
2019-03-16T19:37:54.708Z,1.00
2019-03-16T19:40:25.850Z,0.90
2019-03-16T19:42:57.013Z,0.90
2019-03-16T19:45:29.162Z,1.03
2019-03-16T19:48:02.935Z,1.10
2019-03-16T19:50:32.447Z,0.90
2019-03-16T19:53:04.342Z,0.83
2019-03-16T19:55:35.116Z,1.00
2019-03-16T19:58:05.619Z,0.97
2019-03-16T20:00:36.375Z,0.80
2019-03-16T20:03:06.963Z,1.33
2019-03-16T20:05:37.799Z,0.90
2019-03-16T20:08:08.339Z,1.00
2019-03-16T20:10:39.580Z,0.90
2019-03-16T20:13:10.352Z,1.00
2019-03-16T20:15:43.805Z,1.00
2019-03-16T20:18:14.577Z,1.20
2019-03-16T20:20:45.424Z,1.03
2019-03-16T20:23:16.178Z,0.90
2019-03-16T20:25:48.323Z,0.80
2019-03-16T20:28:19.070Z,0.90
2019-03-16T20:30:49.887Z,1.07
2019-03-16T20:33:20.934Z,1.00
2019-03-16T20:35:51.684Z,1.30
2019-03-16T20:38:22.720Z,1.23
2019-03-16T20:40:53.635Z,1.00
2019-03-16T20:43:24.230Z,1.10
2019-03-16T20:45:54.815Z,1.30
2019-03-16T20:48:25.842Z,1.10
2019-03-16T20:50:57.083Z,1.20
2019-03-16T20:53:28.786Z,1.23
2019-03-16T20:55:59.384Z,1.10
2019-03-16T20:58:30.242Z,1.23
2019-03-16T21:01:01.431Z,1.33
2019-03-16T21:03:32.106Z,1.27
2019-03-16T21:06:03.020Z,1.20
2019-03-16T21:08:33.731Z,1.23
2019-03-16T21:11:04.931Z,1.20
2019-03-16T21:13:36.485Z,1.50
2019-03-16T21:16:11.297Z,1.37
2019-03-16T21:18:41.925Z,1.43
2019-03-16T21:21:12.784Z,1.70
2019-03-16T21:23:49.094Z,1.40
2019-03-16T21:26:20.228Z,1.40
2019-03-16T21:28:50.922Z,1.33
2019-03-16T21:31:21.855Z,1.60
2019-03-16T21:33:53.615Z,1.40
2019-03-16T21:36:24.763Z,1.40
2019-03-16T21:38:55.623Z,1.57
2019-03-16T21:41:26.626Z,1.33
2019-03-16T21:43:57.574Z,1.53
2019-03-16T21:46:28.149Z,1.50
2019-03-16T21:48:58.833Z,1.30
2019-03-16T21:51:30.757Z,1.63
2019-03-16T21:54:01.401Z,1.30
2019-03-16T21:56:32.358Z,1.60
2019-03-16T21:59:03.006Z,1.40
2019-03-16T22:01:33.820Z,1.20
2019-03-16T22:04:05.213Z,1.60
2019-03-16T22:06:35.930Z,1.40
2019-03-16T22:09:08.074Z,1.50
2019-03-16T22:11:38.707Z,1.63
2019-03-16T22:14:09.485Z,1.53
2019-03-16T22:16:40.308Z,1.60
2019-03-16T22:19:11.654Z,1.50
2019-03-16T22:21:42.376Z,1.60
2019-03-16T22:24:13.203Z,1.47
2019-03-16T22:26:44.262Z,1.47
2019-03-16T22:29:15.937Z,1.30
2019-03-16T22:31:46.874Z,1.50
2019-03-16T22:34:17.602Z,1.40
2019-03-16T22:36:48.495Z,1.50
2019-03-16T22:39:19.215Z,1.40
2019-03-16T22:41:52.069Z,1.30
2019-03-16T22:44:22.906Z,1.50
2019-03-16T22:46:53.981Z,1.30
2019-03-16T22:49:24.546Z,1.30
2019-03-16T22:51:55.199Z,1.20
2019-03-16T22:54:26.216Z,1.33
2019-03-16T22:56:57.070Z,1.43
2019-03-16T22:59:27.807Z,1.40
2019-03-16T23:01:58.846Z,1.40
2019-03-16T23:04:29.579Z,1.40
2019-03-16T23:07:00.642Z,1.57
2019-03-16T23:09:33.263Z,1.50
2019-03-16T23:12:04.216Z,1.37
2019-03-16T23:14:35.077Z,1.30
2019-03-16T23:17:06.131Z,1.20
2019-03-16T23:19:37.039Z,1.20
2019-03-16T23:22:07.797Z,1.50
2019-03-16T23:24:38.756Z,1.40
2019-03-16T23:27:09.672Z,1.50
2019-03-16T23:29:41.241Z,1.50
2019-03-16T23:32:12.169Z,1.47
2019-03-16T23:34:44.570Z,1.30
2019-03-16T23:37:16.837Z,1.33
2019-03-16T23:39:47.497Z,1.30
2019-03-16T23:42:18.165Z,1.60
2019-03-16T23:44:48.798Z,1.60
2019-03-16T23:47:19.376Z,1.33
2019-03-16T23:49:50.251Z,1.53
2019-03-16T23:52:21.260Z,1.60
2019-03-16T23:54:52.498Z,1.53
2019-03-16T23:57:25.660Z,1.63
2019-03-16T23:59:56.588Z,1.70
